sensor_id;sensor_type;location;lat;lon;timestamp;P1;durP1;ratioP1;P2;durP2;ratioP2
27187;SDS011;14708;50.872;5.306;2023-09-19T00:00:33;1.85;;;1.40;;
27187;SDS011;14708;50.872;5.306;2023-09-19T00:03:00;1.77;;;1.40;;
27187;SDS011;14708;50.872;5.306;2023-09-19T00:05:27;2.50;;;1.50;;
27187;SDS011;14708;50.872;5.306;2023-09-19T00:07:55;2.53;;;1.40;;
27187;SDS011;14708;50.872;5.306;2023-09-19T00:10:24;3.00;;;1.58;;
27187;SDS011;14708;50.872;5.306;2023-09-19T00:12:52;2.97;;;1.50;;
27187;SDS011;14708;50.872;5.306;2023-09-19T00:15:23;1.33;;;1.23;;
27187;SDS011;14708;50.872;5.306;2023-09-19T00:17:54;4.28;;;1.80;;
27187;SDS011;14708;50.872;5.306;2023-09-19T00:20:20;4.80;;;1.60;;
27187;SDS011;14708;50.872;5.306;2023-09-19T00:22:48;1.92;;;1.30;;
27187;SDS011;14708;50.872;5.306;2023-09-19T00:25:17;2.53;;;1.30;;
27187;SDS011;14708;50.872;5.306;2023-09-19T00:27:42;3.75;;;1.70;;
27187;SDS011;14708;50.872;5.306;2023-09-19T00:30:10;1.48;;;1.05;;
27187;SDS011;14708;50.872;5.306;2023-09-19T00:32:44;2.45;;;1.23;;
27187;SDS011;14708;50.872;5.306;2023-09-19T00:35:12;2.13;;;1.60;;
27187;SDS011;14708;50.872;5.306;2023-09-19T00:37:41;3.50;;;1.45;;
27187;SDS011;14708;50.872;5.306;2023-09-19T00:40:07;1.40;;;1.08;;
27187;SDS011;14708;50.872;5.306;2023-09-19T00:42:37;1.67;;;1.33;;
27187;SDS011;14708;50.872;5.306;2023-09-19T00:45:05;2.20;;;1.33;;
27187;SDS011;14708;50.872;5.306;2023-09-19T00:47:32;1.20;;;1.10;;
27187;SDS011;14708;50.872;5.306;2023-09-19T00:49:58;4.18;;;1.40;;
27187;SDS011;14708;50.872;5.306;2023-09-19T00:52:24;1.60;;;1.20;;
27187;SDS011;14708;50.872;5.306;2023-09-19T00:54:50;2.28;;;1.25;;
27187;SDS011;14708;50.872;5.306;2023-09-19T00:57:17;2.22;;;1.20;;
27187;SDS011;14708;50.872;5.306;2023-09-19T00:59:44;1.92;;;1.58;;
27187;SDS011;14708;50.872;5.306;2023-09-19T01:02:14;1.98;;;1.48;;
27187;SDS011;14708;50.872;5.306;2023-09-19T01:04:41;1.88;;;1.20;;
27187;SDS011;14708;50.872;5.306;2023-09-19T01:07:08;1.50;;;1.23;;
27187;SDS011;14708;50.872;5.306;2023-09-19T01:09:34;3.67;;;1.60;;
27187;SDS011;14708;50.872;5.306;2023-09-19T01:12:01;1.98;;;1.30;;
27187;SDS011;14708;50.872;5.306;2023-09-19T01:17:46;1.92;;;1.35;;
27187;SDS011;14708;50.872;5.306;2023-09-19T01:31:38;2.03;;;1.30;;
27187;SDS011;14708;50.872;5.306;2023-09-19T01:34:07;2.47;;;1.48;;
27187;SDS011;14708;50.872;5.306;2023-09-19T01:36:36;2.78;;;1.52;;
27187;SDS011;14708;50.872;5.306;2023-09-19T01:39:07;2.38;;;1.30;;
27187;SDS011;14708;50.872;5.306;2023-09-19T01:44:25;1.70;;;1.38;;
27187;SDS011;14708;50.872;5.306;2023-09-19T01:47:02;2.08;;;1.35;;
27187;SDS011;14708;50.872;5.306;2023-09-19T01:49:44;2.15;;;1.17;;
27187;SDS011;14708;50.872;5.306;2023-09-19T01:52:20;2.83;;;1.55;;
27187;SDS011;14708;50.872;5.306;2023-09-19T01:54:51;1.75;;;1.15;;
27187;SDS011;14708;50.872;5.306;2023-09-19T01:57:20;1.98;;;1.08;;
27187;SDS011;14708;50.872;5.306;2023-09-19T02:00:16;1.67;;;1.30;;
27187;SDS011;14708;50.872;5.306;2023-09-19T02:02:42;2.70;;;1.45;;
27187;SDS011;14708;50.872;5.306;2023-09-19T02:05:10;3.47;;;1.80;;
27187;SDS011;14708;50.872;5.306;2023-09-19T02:07:37;2.70;;;1.55;;
27187;SDS011;14708;50.872;5.306;2023-09-19T02:10:04;1.95;;;1.40;;
27187;SDS011;14708;50.872;5.306;2023-09-19T02:12:31;2.10;;;1.30;;
27187;SDS011;14708;50.872;5.306;2023-09-19T02:15:00;1.27;;;1.10;;
27187;SDS011;14708;50.872;5.306;2023-09-19T02:17:26;1.40;;;1.23;;
27187;SDS011;14708;50.872;5.306;2023-09-19T02:19:53;2.50;;;1.27;;
27187;SDS011;14708;50.872;5.306;2023-09-19T02:22:20;1.92;;;1.20;;
27187;SDS011;14708;50.872;5.306;2023-09-19T02:24:49;2.97;;;1.23;;
27187;SDS011;14708;50.872;5.306;2023-09-19T02:27:16;2.30;;;1.17;;
27187;SDS011;14708;50.872;5.306;2023-09-19T02:29:42;1.95;;;1.30;;
27187;SDS011;14708;50.872;5.306;2023-09-19T02:32:09;1.70;;;1.10;;
27187;SDS011;14708;50.872;5.306;2023-09-19T02:34:35;2.22;;;1.27;;
27187;SDS011;14708;50.872;5.306;2023-09-19T02:37:10;1.95;;;1.45;;
27187;SDS011;14708;50.872;5.306;2023-09-19T02:39:38;4.25;;;1.63;;
27187;SDS011;14708;50.872;5.306;2023-09-19T02:42:04;1.73;;;1.20;;
27187;SDS011;14708;50.872;5.306;2023-09-19T02:44:30;2.78;;;1.23;;
27187;SDS011;14708;50.872;5.306;2023-09-19T02:46:55;1.92;;;1.20;;
27187;SDS011;14708;50.872;5.306;2023-09-19T02:49:22;1.90;;;1.10;;
27187;SDS011;14708;50.872;5.306;2023-09-19T02:51:48;1.67;;;1.15;;
27187;SDS011;14708;50.872;5.306;2023-09-19T02:54:14;2.38;;;1.17;;
27187;SDS011;14708;50.872;5.306;2023-09-19T02:56:40;1.20;;;1.02;;
27187;SDS011;14708;50.872;5.306;2023-09-19T02:59:06;2.15;;;1.25;;
27187;SDS011;14708;50.872;5.306;2023-09-19T03:01:35;2.00;;;1.07;;
27187;SDS011;14708;50.872;5.306;2023-09-19T03:04:02;1.67;;;1.20;;
27187;SDS011;14708;50.872;5.306;2023-09-19T03:06:28;2.17;;;1.20;;
27187;SDS011;14708;50.872;5.306;2023-09-19T03:08:55;1.60;;;1.20;;
27187;SDS011;14708;50.872;5.306;2023-09-19T03:11:21;1.85;;;1.13;;
27187;SDS011;14708;50.872;5.306;2023-09-19T03:13:54;1.35;;;1.08;;
27187;SDS011;14708;50.872;5.306;2023-09-19T03:16:20;1.65;;;1.10;;
27187;SDS011;14708;50.872;5.306;2023-09-19T03:18:50;2.92;;;1.25;;
27187;SDS011;14708;50.872;5.306;2023-09-19T03:21:16;2.40;;;1.55;;
27187;SDS011;14708;50.872;5.306;2023-09-19T03:23:42;2.42;;;1.20;;
27187;SDS011;14708;50.872;5.306;2023-09-19T03:26:10;1.55;;;1.17;;
27187;SDS011;14708;50.872;5.306;2023-09-19T03:28:37;2.55;;;1.40;;
27187;SDS011;14708;50.872;5.306;2023-09-19T03:31:04;2.92;;;1.27;;
27187;SDS011;14708;50.872;5.306;2023-09-19T03:33:31;1.90;;;1.35;;
27187;SDS011;14708;50.872;5.306;2023-09-19T03:35:58;1.65;;;1.13;;
27187;SDS011;14708;50.872;5.306;2023-09-19T03:38:24;3.35;;;1.38;;
27187;SDS011;14708;50.872;5.306;2023-09-19T03:40:50;1.77;;;1.15;;
27187;SDS011;14708;50.872;5.306;2023-09-19T03:43:16;1.60;;;1.40;;
27187;SDS011;14708;50.872;5.306;2023-09-19T03:45:42;1.95;;;1.27;;
27187;SDS011;14708;50.872;5.306;2023-09-19T03:48:11;1.75;;;1.30;;
27187;SDS011;14708;50.872;5.306;2023-09-19T03:50:38;2.13;;;1.10;;
27187;SDS011;14708;50.872;5.306;2023-09-19T03:53:04;2.35;;;1.30;;
27187;SDS011;14708;50.872;5.306;2023-09-19T03:55:32;2.75;;;1.35;;
27187;SDS011;14708;50.872;5.306;2023-09-19T03:58:00;2.53;;;1.13;;
27187;SDS011;14708;50.872;5.306;2023-09-19T04:00:26;1.67;;;1.23;;
27187;SDS011;14708;50.872;5.306;2023-09-19T04:02:52;2.08;;;1.50;;
27187;SDS011;14708;50.872;5.306;2023-09-19T04:05:18;2.47;;;1.17;;
27187;SDS011;14708;50.872;5.306;2023-09-19T04:07:44;2.22;;;1.20;;
27187;SDS011;14708;50.872;5.306;2023-09-19T04:10:10;2.47;;;1.52;;
27187;SDS011;14708;50.872;5.306;2023-09-19T04:12:39;1.80;;;1.30;;
27187;SDS011;14708;50.872;5.306;2023-09-19T04:15:06;2.13;;;1.30;;
27187;SDS011;14708;50.872;5.306;2023-09-19T04:17:32;2.72;;;1.30;;
27187;SDS011;14708;50.872;5.306;2023-09-19T04:19:58;1.95;;;1.63;;
27187;SDS011;14708;50.872;5.306;2023-09-19T04:22:25;1.83;;;1.20;;
27187;SDS011;14708;50.872;5.306;2023-09-19T04:24:50;1.40;;;1.13;;
27187;SDS011;14708;50.872;5.306;2023-09-19T04:27:16;2.88;;;1.20;;
27187;SDS011;14708;50.872;5.306;2023-09-19T04:29:42;2.38;;;1.50;;
27187;SDS011;14708;50.872;5.306;2023-09-19T04:32:08;3.25;;;1.42;;
27187;SDS011;14708;50.872;5.306;2023-09-19T04:34:35;4.75;;;2.08;;
27187;SDS011;14708;50.872;5.306;2023-09-19T04:37:01;1.30;;;1.08;;
27187;SDS011;14708;50.872;5.306;2023-09-19T04:39:28;1.63;;;1.23;;
27187;SDS011;14708;50.872;5.306;2023-09-19T04:41:54;1.83;;;1.13;;
27187;SDS011;14708;50.872;5.306;2023-09-19T04:44:20;3.00;;;1.50;;
27187;SDS011;14708;50.872;5.306;2023-09-19T04:46:46;1.70;;;1.17;;
27187;SDS011;14708;50.872;5.306;2023-09-19T04:49:12;1.63;;;1.35;;
27187;SDS011;14708;50.872;5.306;2023-09-19T04:51:37;1.92;;;1.17;;
27187;SDS011;14708;50.872;5.306;2023-09-19T04:54:04;2.17;;;1.20;;
27187;SDS011;14708;50.872;5.306;2023-09-19T04:56:30;2.22;;;1.40;;
27187;SDS011;14708;50.872;5.306;2023-09-19T04:58:57;2.20;;;1.10;;
27187;SDS011;14708;50.872;5.306;2023-09-19T05:01:24;1.50;;;1.00;;
27187;SDS011;14708;50.872;5.306;2023-09-19T05:03:50;1.20;;;1.00;;
27187;SDS011;14708;50.872;5.306;2023-09-19T05:06:18;2.42;;;1.30;;
27187;SDS011;14708;50.872;5.306;2023-09-19T05:11:16;2.22;;;1.00;;
27187;SDS011;14708;50.872;5.306;2023-09-19T05:13:42;4.68;;;1.40;;
27187;SDS011;14708;50.872;5.306;2023-09-19T05:16:08;3.50;;;1.67;;
27187;SDS011;14708;50.872;5.306;2023-09-19T05:18:35;4.53;;;1.42;;
27187;SDS011;14708;50.872;5.306;2023-09-19T05:21:04;1.88;;;1.27;;
27187;SDS011;14708;50.872;5.306;2023-09-19T05:23:29;2.30;;;1.57;;
27187;SDS011;14708;50.872;5.306;2023-09-19T05:25:56;1.58;;;1.00;;
27187;SDS011;14708;50.872;5.306;2023-09-19T05:28:23;1.85;;;1.20;;
27187;SDS011;14708;50.872;5.306;2023-09-19T05:30:49;2.75;;;1.50;;
27187;SDS011;14708;50.872;5.306;2023-09-19T05:33:15;1.55;;;1.25;;
27187;SDS011;14708;50.872;5.306;2023-09-19T05:35:40;1.95;;;1.15;;
27187;SDS011;14708;50.872;5.306;2023-09-19T05:38:06;1.80;;;1.20;;
27187;SDS011;14708;50.872;5.306;2023-09-19T05:40:34;1.45;;;1.15;;
27187;SDS011;14708;50.872;5.306;2023-09-19T05:43:00;2.58;;;1.40;;
27187;SDS011;14708;50.872;5.306;2023-09-19T05:45:28;2.33;;;1.40;;
27187;SDS011;14708;50.872;5.306;2023-09-19T05:47:54;2.88;;;1.45;;
27187;SDS011;14708;50.872;5.306;2023-09-19T05:50:29;2.03;;;1.20;;
27187;SDS011;14708;50.872;5.306;2023-09-19T05:52:55;1.98;;;1.30;;
27187;SDS011;14708;50.872;5.306;2023-09-19T05:55:23;3.90;;;1.40;;
27187;SDS011;14708;50.872;5.306;2023-09-19T05:57:53;2.40;;;1.30;;
27187;SDS011;14708;50.872;5.306;2023-09-19T06:00:20;2.30;;;1.40;;
27187;SDS011;14708;50.872;5.306;2023-09-19T06:02:54;2.45;;;1.30;;
27187;SDS011;14708;50.872;5.306;2023-09-19T06:05:22;1.67;;;1.23;;
27187;SDS011;14708;50.872;5.306;2023-09-19T06:07:57;1.80;;;1.10;;
27187;SDS011;14708;50.872;5.306;2023-09-19T06:10:26;2.03;;;1.10;;
27187;SDS011;14708;50.872;5.306;2023-09-19T06:12:53;1.52;;;0.98;;
27187;SDS011;14708;50.872;5.306;2023-09-19T06:15:20;3.67;;;1.45;;
27187;SDS011;14708;50.872;5.306;2023-09-19T06:17:51;5.60;;;1.55;;
27187;SDS011;14708;50.872;5.306;2023-09-19T06:20:21;6.30;;;1.65;;
27187;SDS011;14708;50.872;5.306;2023-09-19T06:22:49;7.65;;;2.08;;
27187;SDS011;14708;50.872;5.306;2023-09-19T06:25:15;5.78;;;2.15;;
27187;SDS011;14708;50.872;5.306;2023-09-19T06:27:44;13.27;;;3.53;;
27187;SDS011;14708;50.872;5.306;2023-09-19T06:33:23;28.55;;;5.55;;
27187;SDS011;14708;50.872;5.306;2023-09-19T06:35:54;15.47;;;5.20;;
27187;SDS011;14708;50.872;5.306;2023-09-19T06:38:29;19.83;;;5.00;;
27187;SDS011;14708;50.872;5.306;2023-09-19T06:41:04;18.80;;;4.57;;
27187;SDS011;14708;50.872;5.306;2023-09-19T06:43:30;27.10;;;5.68;;
27187;SDS011;14708;50.872;5.306;2023-09-19T06:45:56;20.40;;;4.65;;
27187;SDS011;14708;50.872;5.306;2023-09-19T06:48:22;10.80;;;3.25;;
27187;SDS011;14708;50.872;5.306;2023-09-19T06:54:05;15.82;;;3.22;;
27187;SDS011;14708;50.872;5.306;2023-09-19T06:56:34;17.13;;;3.63;;
27187;SDS011;14708;50.872;5.306;2023-09-19T06:59:02;17.33;;;4.28;;
27187;SDS011;14708;50.872;5.306;2023-09-19T07:01:31;16.33;;;4.10;;
27187;SDS011;14708;50.872;5.306;2023-09-19T07:03:57;16.90;;;4.60;;
27187;SDS011;14708;50.872;5.306;2023-09-19T07:06:22;12.38;;;3.85;;
27187;SDS011;14708;50.872;5.306;2023-09-19T07:09:10;14.38;;;4.55;;
27187;SDS011;14708;50.872;5.306;2023-09-19T07:12:13;13.63;;;3.80;;
27187;SDS011;14708;50.872;5.306;2023-09-19T07:14:39;14.43;;;3.58;;
27187;SDS011;14708;50.872;5.306;2023-09-19T07:17:05;13.13;;;3.25;;
27187;SDS011;14708;50.872;5.306;2023-09-19T07:19:36;11.50;;;3.25;;
27187;SDS011;14708;50.872;5.306;2023-09-19T07:22:05;9.70;;;2.90;;
27187;SDS011;14708;50.872;5.306;2023-09-19T07:24:40;9.82;;;3.17;;
27187;SDS011;14708;50.872;5.306;2023-09-19T07:27:05;16.08;;;3.50;;
27187;SDS011;14708;50.872;5.306;2023-09-19T07:29:35;14.15;;;2.85;;
27187;SDS011;14708;50.872;5.306;2023-09-19T07:32:00;8.60;;;2.55;;
27187;SDS011;14708;50.872;5.306;2023-09-19T07:34:26;11.45;;;3.45;;
27187;SDS011;14708;50.872;5.306;2023-09-19T07:36:51;11.48;;;2.90;;
27187;SDS011;14708;50.872;5.306;2023-09-19T07:39:17;10.20;;;3.25;;
27187;SDS011;14708;50.872;5.306;2023-09-19T07:41:43;11.82;;;2.83;;
27187;SDS011;14708;50.872;5.306;2023-09-19T07:44:08;21.63;;;4.63;;
27187;SDS011;14708;50.872;5.306;2023-09-19T07:46:37;35.05;;;7.30;;
27187;SDS011;14708;50.872;5.306;2023-09-19T07:49:03;34.08;;;7.65;;
27187;SDS011;14708;50.872;5.306;2023-09-19T07:51:30;28.23;;;8.18;;
27187;SDS011;14708;50.872;5.306;2023-09-19T07:53:55;35.58;;;9.00;;
27187;SDS011;14708;50.872;5.306;2023-09-19T07:56:21;44.08;;;9.73;;
27187;SDS011;14708;50.872;5.306;2023-09-19T07:58:47;44.53;;;9.32;;
27187;SDS011;14708;50.872;5.306;2023-09-19T08:01:13;37.13;;;8.25;;
27187;SDS011;14708;50.872;5.306;2023-09-19T08:03:40;31.58;;;8.70;;
27187;SDS011;14708;50.872;5.306;2023-09-19T08:06:07;32.65;;;7.50;;
27187;SDS011;14708;50.872;5.306;2023-09-19T08:08:33;32.90;;;9.13;;
27187;SDS011;14708;50.872;5.306;2023-09-19T08:11:03;29.05;;;7.80;;
27187;SDS011;14708;50.872;5.306;2023-09-19T08:13:36;33.53;;;7.97;;
27187;SDS011;14708;50.872;5.306;2023-09-19T08:16:03;29.13;;;7.68;;
27187;SDS011;14708;50.872;5.306;2023-09-19T08:18:30;35.20;;;7.53;;
27187;SDS011;14708;50.872;5.306;2023-09-19T08:20:55;29.48;;;6.22;;
27187;SDS011;14708;50.872;5.306;2023-09-19T08:23:23;25.55;;;6.25;;
27187;SDS011;14708;50.872;5.306;2023-09-19T08:25:49;25.13;;;7.22;;
27187;SDS011;14708;50.872;5.306;2023-09-19T08:28:15;21.30;;;5.65;;
27187;SDS011;14708;50.872;5.306;2023-09-19T08:30:43;25.45;;;6.15;;
27187;SDS011;14708;50.872;5.306;2023-09-19T08:33:10;25.75;;;5.90;;
27187;SDS011;14708;50.872;5.306;2023-09-19T08:35:36;28.77;;;6.10;;
27187;SDS011;14708;50.872;5.306;2023-09-19T08:38:04;22.95;;;5.53;;
27187;SDS011;14708;50.872;5.306;2023-09-19T08:40:31;21.23;;;5.22;;
27187;SDS011;14708;50.872;5.306;2023-09-19T08:42:58;19.45;;;5.43;;
27187;SDS011;14708;50.872;5.306;2023-09-19T08:45:25;22.90;;;5.72;;
27187;SDS011;14708;50.872;5.306;2023-09-19T08:50:33;21.25;;;5.28;;
27187;SDS011;14708;50.872;5.306;2023-09-19T08:53:11;15.38;;;4.63;;
27187;SDS011;14708;50.872;5.306;2023-09-19T08:55:41;16.23;;;4.43;;
27187;SDS011;14708;50.872;5.306;2023-09-19T08:58:09;14.90;;;3.70;;
27187;SDS011;14708;50.872;5.306;2023-09-19T09:00:36;19.98;;;5.15;;
27187;SDS011;14708;50.872;5.306;2023-09-19T09:03:02;16.88;;;4.65;;
27187;SDS011;14708;50.872;5.306;2023-09-19T09:05:31;10.90;;;3.05;;
27187;SDS011;14708;50.872;5.306;2023-09-19T09:07:58;13.68;;;3.70;;
27187;SDS011;14708;50.872;5.306;2023-09-19T09:10:24;12.23;;;3.90;;
27187;SDS011;14708;50.872;5.306;2023-09-19T09:12:52;13.73;;;3.38;;
27187;SDS011;14708;50.872;5.306;2023-09-19T09:15:21;13.10;;;3.80;;
27187;SDS011;14708;50.872;5.306;2023-09-19T09:17:49;11.40;;;3.53;;
27187;SDS011;14708;50.872;5.306;2023-09-19T09:20:20;13.02;;;3.58;;
27187;SDS011;14708;50.872;5.306;2023-09-19T09:22:52;8.95;;;3.05;;
27187;SDS011;14708;50.872;5.306;2023-09-19T09:25:19;12.40;;;2.72;;
27187;SDS011;14708;50.872;5.306;2023-09-19T09:27:58;7.95;;;3.50;;
27187;SDS011;14708;50.872;5.306;2023-09-19T09:30:34;10.13;;;2.78;;
27187;SDS011;14708;50.872;5.306;2023-09-19T09:33:09;9.23;;;2.88;;
27187;SDS011;14708;50.872;5.306;2023-09-19T09:38:20;14.00;;;2.97;;
27187;SDS011;14708;50.872;5.306;2023-09-19T09:40:52;8.60;;;2.95;;
27187;SDS011;14708;50.872;5.306;2023-09-19T09:43:29;11.75;;;3.00;;
27187;SDS011;14708;50.872;5.306;2023-09-19T09:46:15;9.52;;;2.72;;
27187;SDS011;14708;50.872;5.306;2023-09-19T09:48:55;9.77;;;3.20;;
27187;SDS011;14708;50.872;5.306;2023-09-19T09:51:45;9.30;;;2.30;;
27187;SDS011;14708;50.872;5.306;2023-09-19T09:54:22;6.47;;;2.30;;
27187;SDS011;14708;50.872;5.306;2023-09-19T09:56:53;8.18;;;2.83;;
27187;SDS011;14708;50.872;5.306;2023-09-19T09:59:25;8.73;;;2.00;;
27187;SDS011;14708;50.872;5.306;2023-09-19T10:02:19;6.72;;;2.65;;
27187;SDS011;14708;50.872;5.306;2023-09-19T10:04:52;10.25;;;1.85;;
27187;SDS011;14708;50.872;5.306;2023-09-19T10:07:35;5.25;;;2.08;;
27187;SDS011;14708;50.872;5.306;2023-09-19T10:10:05;11.82;;;2.60;;
27187;SDS011;14708;50.872;5.306;2023-09-19T10:12:45;5.97;;;1.88;;
27187;SDS011;14708;50.872;5.306;2023-09-19T10:15:13;7.70;;;2.28;;
27187;SDS011;14708;50.872;5.306;2023-09-19T10:17:44;11.38;;;2.33;;
27187;SDS011;14708;50.872;5.306;2023-09-19T10:20:16;9.05;;;2.50;;
27187;SDS011;14708;50.872;5.306;2023-09-19T10:23:04;9.18;;;2.35;;
27187;SDS011;14708;50.872;5.306;2023-09-19T10:25:38;9.63;;;2.15;;
27187;SDS011;14708;50.872;5.306;2023-09-19T10:28:09;10.20;;;2.37;;
27187;SDS011;14708;50.872;5.306;2023-09-19T10:30:37;8.45;;;2.35;;
27187;SDS011;14708;50.872;5.306;2023-09-19T10:33:13;10.55;;;2.40;;
27187;SDS011;14708;50.872;5.306;2023-09-19T10:35:44;9.73;;;2.60;;
27187;SDS011;14708;50.872;5.306;2023-09-19T10:38:11;9.30;;;1.83;;
27187;SDS011;14708;50.872;5.306;2023-09-19T10:40:50;5.93;;;1.92;;
27187;SDS011;14708;50.872;5.306;2023-09-19T10:43:19;5.03;;;1.83;;
27187;SDS011;14708;50.872;5.306;2023-09-19T10:45:46;7.80;;;1.60;;
27187;SDS011;14708;50.872;5.306;2023-09-19T10:48:19;5.60;;;1.90;;
27187;SDS011;14708;50.872;5.306;2023-09-19T10:50:46;7.70;;;2.22;;
27187;SDS011;14708;50.872;5.306;2023-09-19T10:53:52;6.20;;;2.30;;
27187;SDS011;14708;50.872;5.306;2023-09-19T10:59:13;6.22;;;2.30;;
27187;SDS011;14708;50.872;5.306;2023-09-19T11:01:42;7.22;;;1.90;;
27187;SDS011;14708;50.872;5.306;2023-09-19T11:09:43;5.35;;;1.60;;
27187;SDS011;14708;50.872;5.306;2023-09-19T11:14:54;6.75;;;2.00;;
27187;SDS011;14708;50.872;5.306;2023-09-19T11:25:55;4.68;;;1.58;;
27187;SDS011;14708;50.872;5.306;2023-09-19T11:30:49;7.50;;;1.77;;
27187;SDS011;14708;50.872;5.306;2023-09-19T11:36:00;6.38;;;1.45;;
27187;SDS011;14708;50.872;5.306;2023-09-19T11:46:26;9.27;;;1.70;;
27187;SDS011;14708;50.872;5.306;2023-09-19T11:48:53;6.75;;;1.73;;
27187;SDS011;14708;50.872;5.306;2023-09-19T11:51:20;5.38;;;1.45;;
27187;SDS011;14708;50.872;5.306;2023-09-19T11:53:55;8.27;;;1.65;;
27187;SDS011;14708;50.872;5.306;2023-09-19T11:56:24;7.20;;;1.88;;
27187;SDS011;14708;50.872;5.306;2023-09-19T11:58:53;6.85;;;1.90;;
27187;SDS011;14708;50.872;5.306;2023-09-19T12:01:24;7.40;;;1.35;;
27187;SDS011;14708;50.872;5.306;2023-09-19T12:03:58;4.55;;;1.30;;
27187;SDS011;14708;50.872;5.306;2023-09-19T12:06:25;5.55;;;1.40;;
27187;SDS011;14708;50.872;5.306;2023-09-19T12:08:52;8.85;;;1.38;;
27187;SDS011;14708;50.872;5.306;2023-09-19T12:11:22;4.18;;;1.40;;
27187;SDS011;14708;50.872;5.306;2023-09-19T12:13:50;5.60;;;1.08;;
27187;SDS011;14708;50.872;5.306;2023-09-19T12:16:17;5.50;;;1.50;;
27187;SDS011;14708;50.872;5.306;2023-09-19T12:18:47;3.85;;;1.20;;
27187;SDS011;14708;50.872;5.306;2023-09-19T12:21:22;5.53;;;1.77;;
27187;SDS011;14708;50.872;5.306;2023-09-19T12:23:58;3.60;;;1.20;;
27187;SDS011;14708;50.872;5.306;2023-09-19T12:26:26;4.47;;;1.67;;
27187;SDS011;14708;50.872;5.306;2023-09-19T12:28:54;3.35;;;1.27;;
27187;SDS011;14708;50.872;5.306;2023-09-19T12:31:20;3.83;;;1.20;;
27187;SDS011;14708;50.872;5.306;2023-09-19T12:33:52;3.15;;;1.00;;
27187;SDS011;14708;50.872;5.306;2023-09-19T12:36:23;2.95;;;1.05;;
27187;SDS011;14708;50.872;5.306;2023-09-19T12:38:59;3.92;;;1.27;;
27187;SDS011;14708;50.872;5.306;2023-09-19T12:41:28;5.30;;;1.20;;
27187;SDS011;14708;50.872;5.306;2023-09-19T12:43:54;8.80;;;1.75;;
27187;SDS011;14708;50.872;5.306;2023-09-19T12:46:23;4.80;;;1.33;;
27187;SDS011;14708;50.872;5.306;2023-09-19T12:49:14;3.63;;;1.20;;
27187;SDS011;14708;50.872;5.306;2023-09-19T12:51:45;4.32;;;1.08;;
27187;SDS011;14708;50.872;5.306;2023-09-19T12:54:12;3.67;;;0.95;;
27187;SDS011;14708;50.872;5.306;2023-09-19T12:56:40;6.55;;;1.50;;
27187;SDS011;14708;50.872;5.306;2023-09-19T12:59:11;9.63;;;1.40;;
27187;SDS011;14708;50.872;5.306;2023-09-19T13:01:39;3.40;;;0.80;;
27187;SDS011;14708;50.872;5.306;2023-09-19T13:04:18;5.78;;;1.10;;
27187;SDS011;14708;50.872;5.306;2023-09-19T13:06:53;3.45;;;0.90;;
27187;SDS011;14708;50.872;5.306;2023-09-19T13:09:20;6.22;;;1.10;;
27187;SDS011;14708;50.872;5.306;2023-09-19T13:11:49;2.75;;;1.10;;
27187;SDS011;14708;50.872;5.306;2023-09-19T13:14:20;3.90;;;0.90;;
27187;SDS011;14708;50.872;5.306;2023-09-19T13:19:45;4.68;;;0.82;;
27187;SDS011;14708;50.872;5.306;2023-09-19T13:22:38;2.53;;;0.73;;
27187;SDS011;14708;50.872;5.306;2023-09-19T13:25:15;3.85;;;0.80;;
27187;SDS011;14708;50.872;5.306;2023-09-19T13:27:45;2.80;;;0.98;;
27187;SDS011;14708;50.872;5.306;2023-09-19T13:30:13;1.53;;;0.70;;
27187;SDS011;14708;50.872;5.306;2023-09-19T13:32:40;3.10;;;1.00;;
27187;SDS011;14708;50.872;5.306;2023-09-19T13:35:08;2.65;;;0.85;;
27187;SDS011;14708;50.872;5.306;2023-09-19T13:40:10;5.00;;;1.02;;
27187;SDS011;14708;50.872;5.306;2023-09-19T13:42:37;4.72;;;0.95;;
27187;SDS011;14708;50.872;5.306;2023-09-19T13:45:03;2.50;;;0.95;;
27187;SDS011;14708;50.872;5.306;2023-09-19T13:47:30;4.57;;;1.10;;
27187;SDS011;14708;50.872;5.306;2023-09-19T13:49:56;3.60;;;1.00;;
27187;SDS011;14708;50.872;5.306;2023-09-19T13:52:22;2.15;;;0.75;;
27187;SDS011;14708;50.872;5.306;2023-09-19T13:54:48;7.45;;;1.65;;
27187;SDS011;14708;50.872;5.306;2023-09-19T13:57:18;3.58;;;1.02;;
27187;SDS011;14708;50.872;5.306;2023-09-19T13:59:43;4.20;;;1.13;;
27187;SDS011;14708;50.872;5.306;2023-09-19T14:02:09;5.65;;;1.13;;
27187;SDS011;14708;50.872;5.306;2023-09-19T14:04:35;1.40;;;0.65;;
27187;SDS011;14708;50.872;5.306;2023-09-19T14:07:01;3.42;;;1.00;;
27187;SDS011;14708;50.872;5.306;2023-09-19T14:09:27;5.70;;;1.65;;
27187;SDS011;14708;50.872;5.306;2023-09-19T14:11:53;3.45;;;1.35;;
27187;SDS011;14708;50.872;5.306;2023-09-19T14:14:19;4.65;;;1.10;;
27187;SDS011;14708;50.872;5.306;2023-09-19T14:16:47;2.92;;;0.75;;
27187;SDS011;14708;50.872;5.306;2023-09-19T14:19:13;5.53;;;1.05;;
27187;SDS011;14708;50.872;5.306;2023-09-19T14:21:41;3.15;;;0.93;;
27187;SDS011;14708;50.872;5.306;2023-09-19T14:24:07;3.80;;;1.05;;
27187;SDS011;14708;50.872;5.306;2023-09-19T14:26:37;2.63;;;1.00;;
27187;SDS011;14708;50.872;5.306;2023-09-19T14:29:04;5.10;;;1.15;;
27187;SDS011;14708;50.872;5.306;2023-09-19T14:31:32;2.92;;;1.38;;
27187;SDS011;14708;50.872;5.306;2023-09-19T14:33:59;6.15;;;1.30;;
27187;SDS011;14708;50.872;5.306;2023-09-19T14:36:25;3.63;;;0.90;;
27187;SDS011;14708;50.872;5.306;2023-09-19T14:38:54;4.13;;;1.00;;
27187;SDS011;14708;50.872;5.306;2023-09-19T14:41:22;3.28;;;0.93;;
27187;SDS011;14708;50.872;5.306;2023-09-19T14:43:49;3.20;;;1.00;;
27187;SDS011;14708;50.872;5.306;2023-09-19T14:46:15;4.60;;;0.93;;
27187;SDS011;14708;50.872;5.306;2023-09-19T14:48:41;3.00;;;0.90;;
27187;SDS011;14708;50.872;5.306;2023-09-19T14:51:08;4.57;;;1.15;;
27187;SDS011;14708;50.872;5.306;2023-09-19T14:53:34;4.43;;;0.90;;
27187;SDS011;14708;50.872;5.306;2023-09-19T14:56:03;2.83;;;0.95;;
27187;SDS011;14708;50.872;5.306;2023-09-19T14:58:30;3.67;;;0.90;;
27187;SDS011;14708;50.872;5.306;2023-09-19T15:01:03;2.03;;;0.80;;
27187;SDS011;14708;50.872;5.306;2023-09-19T15:03:33;4.47;;;1.40;;
27187;SDS011;14708;50.872;5.306;2023-09-19T15:06:01;3.53;;;1.00;;
27187;SDS011;14708;50.872;5.306;2023-09-19T15:08:37;4.05;;;0.98;;
27187;SDS011;14708;50.872;5.306;2023-09-19T15:11:08;6.30;;;1.42;;
27187;SDS011;14708;50.872;5.306;2023-09-19T15:13:35;2.60;;;0.95;;
27187;SDS011;14708;50.872;5.306;2023-09-19T15:16:10;3.17;;;1.10;;
27187;SDS011;14708;50.872;5.306;2023-09-19T15:18:44;3.88;;;0.98;;
27187;SDS011;14708;50.872;5.306;2023-09-19T15:21:12;2.65;;;1.13;;
27187;SDS011;14708;50.872;5.306;2023-09-19T15:23:39;2.95;;;1.38;;
27187;SDS011;14708;50.872;5.306;2023-09-19T15:26:06;5.57;;;1.17;;
27187;SDS011;14708;50.872;5.306;2023-09-19T15:28:33;2.08;;;0.95;;
27187;SDS011;14708;50.872;5.306;2023-09-19T15:31:33;4.10;;;1.00;;
27187;SDS011;14708;50.872;5.306;2023-09-19T15:33:51;4.78;;;1.23;;
27187;SDS011;14708;50.872;5.306;2023-09-19T15:36:17;3.30;;;1.10;;
27187;SDS011;14708;50.872;5.306;2023-09-19T15:41:32;1.20;;;0.60;;
27187;SDS011;14708;50.872;5.306;2023-09-19T15:43:58;3.35;;;1.27;;
27187;SDS011;14708;50.872;5.306;2023-09-19T15:46:26;2.05;;;1.00;;
27187;SDS011;14708;50.872;5.306;2023-09-19T15:48:53;4.70;;;1.42;;
27187;SDS011;14708;50.872;5.306;2023-09-19T15:51:18;2.45;;;1.20;;
27187;SDS011;14708;50.872;5.306;2023-09-19T15:53:45;3.97;;;1.30;;
27187;SDS011;14708;50.872;5.306;2023-09-19T15:56:13;3.65;;;1.15;;
27187;SDS011;14708;50.872;5.306;2023-09-19T15:58:45;3.38;;;1.20;;
27187;SDS011;14708;50.872;5.306;2023-09-19T16:01:12;4.60;;;1.58;;
27187;SDS011;14708;50.872;5.306;2023-09-19T16:03:39;9.55;;;1.15;;
27187;SDS011;14708;50.872;5.306;2023-09-19T16:06:12;4.75;;;1.40;;
27187;SDS011;14708;50.872;5.306;2023-09-19T16:08:40;5.68;;;1.25;;